sensor_id;sensor_type;location;lat;lon;timestamp;P1;durP1;ratioP1;P2;durP2;ratioP2
19231;SDS011;9750;48.730;10.294;2023-09-12T00:01:35;12.10;;;6.90;;
19231;SDS011;9750;48.730;10.294;2023-09-12T00:04:03;8.10;;;7.10;;
19231;SDS011;9750;48.730;10.294;2023-09-12T00:06:31;9.80;;;6.40;;
19231;SDS011;9750;48.730;10.294;2023-09-12T00:08:58;9.63;;;6.60;;
19231;SDS011;9750;48.730;10.294;2023-09-12T00:11:25;11.73;;;6.40;;
19231;SDS011;9750;48.730;10.294;2023-09-12T00:13:54;9.73;;;6.50;;
19231;SDS011;9750;48.730;10.294;2023-09-12T00:16:22;11.30;;;6.72;;
19231;SDS011;9750;48.730;10.294;2023-09-12T00:18:49;10.43;;;7.10;;
19231;SDS011;9750;48.730;10.294;2023-09-12T00:21:16;9.80;;;6.40;;
19231;SDS011;9750;48.730;10.294;2023-09-12T00:23:43;11.70;;;7.30;;
19231;SDS011;9750;48.730;10.294;2023-09-12T00:26:11;12.47;;;6.53;;
19231;SDS011;9750;48.730;10.294;2023-09-12T00:28:38;10.03;;;6.47;;
19231;SDS011;9750;48.730;10.294;2023-09-12T00:34:09;12.43;;;7.33;;
19231;SDS011;9750;48.730;10.294;2023-09-12T00:36:41;12.40;;;7.23;;
19231;SDS011;9750;48.730;10.294;2023-09-12T00:39:09;10.87;;;7.33;;
19231;SDS011;9750;48.730;10.294;2023-09-12T00:41:36;11.20;;;6.70;;
19231;SDS011;9750;48.730;10.294;2023-09-12T00:44:04;9.27;;;8.30;;
19231;SDS011;9750;48.730;10.294;2023-09-12T00:46:31;11.33;;;7.97;;
19231;SDS011;9750;48.730;10.294;2023-09-12T00:48:59;12.63;;;7.67;;
19231;SDS011;9750;48.730;10.294;2023-09-12T00:51:28;11.07;;;8.47;;
19231;SDS011;9750;48.730;10.294;2023-09-12T00:53:57;9.50;;;7.63;;
19231;SDS011;9750;48.730;10.294;2023-09-12T00:56:24;13.57;;;8.20;;
19231;SDS011;9750;48.730;10.294;2023-09-12T00:58:52;10.23;;;8.57;;
19231;SDS011;9750;48.730;10.294;2023-09-12T01:01:32;10.40;;;8.33;;
19231;SDS011;9750;48.730;10.294;2023-09-12T01:04:00;15.87;;;9.20;;
19231;SDS011;9750;48.730;10.294;2023-09-12T01:06:30;13.37;;;8.57;;
19231;SDS011;9750;48.730;10.294;2023-09-12T01:09:00;10.90;;;8.60;;
19231;SDS011;9750;48.730;10.294;2023-09-12T01:11:27;15.27;;;9.63;;
19231;SDS011;9750;48.730;10.294;2023-09-12T01:13:55;12.77;;;9.37;;
19231;SDS011;9750;48.730;10.294;2023-09-12T01:16:22;16.10;;;9.70;;
19231;SDS011;9750;48.730;10.294;2023-09-12T01:18:50;13.03;;;9.63;;
19231;SDS011;9750;48.730;10.294;2023-09-12T01:21:34;13.97;;;9.60;;
19231;SDS011;9750;48.730;10.294;2023-09-12T01:24:13;15.73;;;10.00;;
19231;SDS011;9750;48.730;10.294;2023-09-12T01:26:59;12.73;;;8.67;;
19231;SDS011;9750;48.730;10.294;2023-09-12T01:29:42;12.03;;;9.40;;
19231;SDS011;9750;48.730;10.294;2023-09-12T01:32:12;12.87;;;9.17;;
19231;SDS011;9750;48.730;10.294;2023-09-12T01:34:41;13.80;;;9.70;;
19231;SDS011;9750;48.730;10.294;2023-09-12T01:37:08;16.00;;;10.00;;
19231;SDS011;9750;48.730;10.294;2023-09-12T01:39:35;14.40;;;8.97;;
19231;SDS011;9750;48.730;10.294;2023-09-12T01:45:26;12.87;;;9.33;;
19231;SDS011;9750;48.730;10.294;2023-09-12T01:47:53;13.83;;;9.63;;
19231;SDS011;9750;48.730;10.294;2023-09-12T01:50:21;11.40;;;9.10;;
19231;SDS011;9750;48.730;10.294;2023-09-12T01:52:50;11.40;;;8.70;;
19231;SDS011;9750;48.730;10.294;2023-09-12T01:55:18;10.80;;;9.13;;
19231;SDS011;9750;48.730;10.294;2023-09-12T01:57:45;11.50;;;8.30;;
19231;SDS011;9750;48.730;10.294;2023-09-12T02:00:13;12.67;;;8.50;;
19231;SDS011;9750;48.730;10.294;2023-09-12T02:02:42;11.07;;;7.83;;
19231;SDS011;9750;48.730;10.294;2023-09-12T02:05:11;11.03;;;8.97;;
19231;SDS011;9750;48.730;10.294;2023-09-12T02:07:43;13.73;;;8.83;;
19231;SDS011;9750;48.730;10.294;2023-09-12T02:10:11;14.27;;;8.60;;
19231;SDS011;9750;48.730;10.294;2023-09-12T02:12:38;10.27;;;8.40;;
19231;SDS011;9750;48.730;10.294;2023-09-12T02:15:06;11.70;;;8.20;;
19231;SDS011;9750;48.730;10.294;2023-09-12T02:17:34;12.10;;;8.20;;
19231;SDS011;9750;48.730;10.294;2023-09-12T02:20:06;11.87;;;8.63;;
19231;SDS011;9750;48.730;10.294;2023-09-12T02:22:34;11.43;;;8.03;;
19231;SDS011;9750;48.730;10.294;2023-09-12T02:25:02;11.03;;;8.47;;
19231;SDS011;9750;48.730;10.294;2023-09-12T02:27:29;12.30;;;8.57;;
19231;SDS011;9750;48.730;10.294;2023-09-12T02:29:57;14.57;;;8.90;;
19231;SDS011;9750;48.730;10.294;2023-09-12T02:32:24;10.50;;;8.53;;
19231;SDS011;9750;48.730;10.294;2023-09-12T02:34:51;11.40;;;8.40;;
19231;SDS011;9750;48.730;10.294;2023-09-12T02:37:21;12.23;;;8.60;;
19231;SDS011;9750;48.730;10.294;2023-09-12T02:39:48;10.90;;;8.87;;
19231;SDS011;9750;48.730;10.294;2023-09-12T02:42:15;12.77;;;8.23;;
19231;SDS011;9750;48.730;10.294;2023-09-12T02:44:42;9.50;;;8.30;;
19231;SDS011;9750;48.730;10.294;2023-09-12T02:47:10;13.53;;;8.23;;
19231;SDS011;9750;48.730;10.294;2023-09-12T02:49:37;10.90;;;8.43;;
19231;SDS011;9750;48.730;10.294;2023-09-12T02:52:04;9.40;;;8.30;;
19231;SDS011;9750;48.730;10.294;2023-09-12T02:54:33;11.47;;;9.07;;
19231;SDS011;9750;48.730;10.294;2023-09-12T02:57:00;13.43;;;9.17;;
19231;SDS011;9750;48.730;10.294;2023-09-12T02:59:29;12.00;;;9.20;;
19231;SDS011;9750;48.730;10.294;2023-09-12T03:01:56;12.27;;;9.13;;
19231;SDS011;9750;48.730;10.294;2023-09-12T03:04:24;10.53;;;8.70;;
19231;SDS011;9750;48.730;10.294;2023-09-12T03:06:52;13.03;;;9.77;;
19231;SDS011;9750;48.730;10.294;2023-09-12T03:09:19;12.40;;;9.27;;
19231;SDS011;9750;48.730;10.294;2023-09-12T03:11:49;10.77;;;8.30;;
19231;SDS011;9750;48.730;10.294;2023-09-12T03:14:16;11.03;;;8.43;;
19231;SDS011;9750;48.730;10.294;2023-09-12T03:16:43;12.17;;;9.10;;
19231;SDS011;9750;48.730;10.294;2023-09-12T03:19:11;12.60;;;8.57;;
19231;SDS011;9750;48.730;10.294;2023-09-12T03:21:38;12.73;;;9.03;;
19231;SDS011;9750;48.730;10.294;2023-09-12T03:24:05;12.27;;;8.90;;
19231;SDS011;9750;48.730;10.294;2023-09-12T03:26:33;14.70;;;9.37;;
19231;SDS011;9750;48.730;10.294;2023-09-12T03:29:03;11.13;;;8.83;;
19231;SDS011;9750;48.730;10.294;2023-09-12T03:31:30;12.77;;;9.40;;
19231;SDS011;9750;48.730;10.294;2023-09-12T03:33:58;11.57;;;9.30;;
19231;SDS011;9750;48.730;10.294;2023-09-12T03:36:25;11.60;;;9.03;;
19231;SDS011;9750;48.730;10.294;2023-09-12T03:38:52;17.20;;;9.53;;
19231;SDS011;9750;48.730;10.294;2023-09-12T03:44:40;12.53;;;9.50;;
19231;SDS011;9750;48.730;10.294;2023-09-12T03:47:08;13.07;;;9.23;;
19231;SDS011;9750;48.730;10.294;2023-09-12T03:49:35;15.40;;;9.90;;
19231;SDS011;9750;48.730;10.294;2023-09-12T03:52:02;15.63;;;10.80;;
19231;SDS011;9750;48.730;10.294;2023-09-12T03:54:30;11.83;;;9.93;;
19231;SDS011;9750;48.730;10.294;2023-09-12T03:56:57;10.27;;;9.27;;
19231;SDS011;9750;48.730;10.294;2023-09-12T03:59:25;10.47;;;9.40;;
19231;SDS011;9750;48.730;10.294;2023-09-12T04:01:53;14.00;;;10.57;;
19231;SDS011;9750;48.730;10.294;2023-09-12T04:04:20;12.33;;;10.13;;
19231;SDS011;9750;48.730;10.294;2023-09-12T04:06:48;15.20;;;10.87;;
19231;SDS011;9750;48.730;10.294;2023-09-12T04:09:15;14.23;;;9.33;;
19231;SDS011;9750;48.730;10.294;2023-09-12T04:14:54;11.10;;;9.67;;
19231;SDS011;9750;48.730;10.294;2023-09-12T04:17:23;15.13;;;10.23;;
19231;SDS011;9750;48.730;10.294;2023-09-12T04:19:50;15.53;;;10.00;;
19231;SDS011;9750;48.730;10.294;2023-09-12T04:22:18;12.20;;;10.07;;
19231;SDS011;9750;48.730;10.294;2023-09-12T04:24:45;10.83;;;9.63;;
19231;SDS011;9750;48.730;10.294;2023-09-12T04:27:12;13.47;;;8.97;;
19231;SDS011;9750;48.730;10.294;2023-09-12T04:29:39;13.10;;;9.20;;
19231;SDS011;9750;48.730;10.294;2023-09-12T04:32:07;12.13;;;10.00;;
19231;SDS011;9750;48.730;10.294;2023-09-12T04:34:35;10.93;;;9.40;;
19231;SDS011;9750;48.730;10.294;2023-09-12T04:37:03;14.10;;;9.63;;
19231;SDS011;9750;48.730;10.294;2023-09-12T04:39:30;11.47;;;9.30;;
19231;SDS011;9750;48.730;10.294;2023-09-12T04:41:58;11.30;;;10.07;;
19231;SDS011;9750;48.730;10.294;2023-09-12T04:44:25;12.37;;;9.37;;
19231;SDS011;9750;48.730;10.294;2023-09-12T04:47:10;13.60;;;9.80;;
19231;SDS011;9750;48.730;10.294;2023-09-12T04:49:58;11.70;;;9.93;;
19231;SDS011;9750;48.730;10.294;2023-09-12T04:52:26;12.47;;;9.87;;
19231;SDS011;9750;48.730;10.294;2023-09-12T04:54:54;13.87;;;9.90;;
19231;SDS011;9750;48.730;10.294;2023-09-12T04:57:21;11.90;;;9.60;;
19231;SDS011;9750;48.730;10.294;2023-09-12T04:59:48;16.50;;;10.97;;
19231;SDS011;9750;48.730;10.294;2023-09-12T05:02:17;12.20;;;10.90;;
19231;SDS011;9750;48.730;10.294;2023-09-12T05:04:44;15.33;;;10.90;;
19231;SDS011;9750;48.730;10.294;2023-09-12T05:07:13;15.93;;;10.40;;
19231;SDS011;9750;48.730;10.294;2023-09-12T05:09:40;12.30;;;11.00;;
19231;SDS011;9750;48.730;10.294;2023-09-12T05:12:08;11.87;;;9.77;;
19231;SDS011;9750;48.730;10.294;2023-09-12T05:14:35;17.33;;;11.60;;
19231;SDS011;9750;48.730;10.294;2023-09-12T05:17:02;12.10;;;10.20;;
19231;SDS011;9750;48.730;10.294;2023-09-12T05:19:30;14.03;;;10.27;;
19231;SDS011;9750;48.730;10.294;2023-09-12T05:21:57;14.93;;;10.07;;
19231;SDS011;9750;48.730;10.294;2023-09-12T05:24:26;18.40;;;10.77;;
19231;SDS011;9750;48.730;10.294;2023-09-12T05:30:14;15.97;;;9.73;;
19231;SDS011;9750;48.730;10.294;2023-09-12T05:32:54;14.40;;;10.53;;
19231;SDS011;9750;48.730;10.294;2023-09-12T05:35:45;14.23;;;9.63;;
19231;SDS011;9750;48.730;10.294;2023-09-12T05:38:12;10.73;;;9.37;;
19231;SDS011;9750;48.730;10.294;2023-09-12T05:40:41;16.63;;;10.37;;
19231;SDS011;9750;48.730;10.294;2023-09-12T05:43:08;12.10;;;10.70;;
19231;SDS011;9750;48.730;10.294;2023-09-12T05:45:38;13.50;;;10.40;;
19231;SDS011;9750;48.730;10.294;2023-09-12T05:48:06;14.13;;;9.97;;
19231;SDS011;9750;48.730;10.294;2023-09-12T05:50:34;13.50;;;9.80;;
19231;SDS011;9750;48.730;10.294;2023-09-12T05:53:02;13.23;;;10.40;;
19231;SDS011;9750;48.730;10.294;2023-09-12T05:55:30;15.40;;;10.60;;
19231;SDS011;9750;48.730;10.294;2023-09-12T05:57:58;16.87;;;10.67;;
19231;SDS011;9750;48.730;10.294;2023-09-12T06:00:26;16.67;;;11.13;;
19231;SDS011;9750;48.730;10.294;2023-09-12T06:02:53;15.43;;;10.07;;
19231;SDS011;9750;48.730;10.294;2023-09-12T06:05:21;19.17;;;10.90;;
19231;SDS011;9750;48.730;10.294;2023-09-12T06:07:48;13.17;;;10.40;;
19231;SDS011;9750;48.730;10.294;2023-09-12T06:10:15;16.50;;;10.33;;
19231;SDS011;9750;48.730;10.294;2023-09-12T06:12:42;15.70;;;10.37;;
19231;SDS011;9750;48.730;10.294;2023-09-12T06:15:11;15.50;;;10.37;;
19231;SDS011;9750;48.730;10.294;2023-09-12T06:20:47;18.43;;;11.50;;
19231;SDS011;9750;48.730;10.294;2023-09-12T06:26:06;18.73;;;13.07;;
19231;SDS011;9750;48.730;10.294;2023-09-12T06:28:42;16.43;;;12.03;;
19231;SDS011;9750;48.730;10.294;2023-09-12T06:31:17;14.97;;;11.97;;
19231;SDS011;9750;48.730;10.294;2023-09-12T06:34:06;16.90;;;11.00;;
19231;SDS011;9750;48.730;10.294;2023-09-12T06:36:47;14.70;;;10.33;;
19231;SDS011;9750;48.730;10.294;2023-09-12T06:39:29;15.27;;;10.07;;
19231;SDS011;9750;48.730;10.294;2023-09-12T06:42:23;15.00;;;10.57;;
19231;SDS011;9750;48.730;10.294;2023-09-12T06:44:51;15.37;;;11.07;;
19231;SDS011;9750;48.730;10.294;2023-09-12T06:47:19;18.90;;;10.80;;
19231;SDS011;9750;48.730;10.294;2023-09-12T06:49:47;19.00;;;11.23;;
19231;SDS011;9750;48.730;10.294;2023-09-12T06:52:25;14.77;;;11.63;;
19231;SDS011;9750;48.730;10.294;2023-09-12T06:55:54;17.00;;;11.33;;
19231;SDS011;9750;48.730;10.294;2023-09-12T07:06:20;14.70;;;10.60;;
19231;SDS011;9750;48.730;10.294;2023-09-12T07:12:06;14.87;;;10.47;;
19231;SDS011;9750;48.730;10.294;2023-09-12T07:15:38;16.43;;;10.00;;
19231;SDS011;9750;48.730;10.294;2023-09-12T07:21:31;13.43;;;9.57;;
19231;SDS011;9750;48.730;10.294;2023-09-12T07:24:50;13.38;;;9.38;;
19231;SDS011;9750;48.730;10.294;2023-09-12T07:34:05;15.63;;;8.73;;
19231;SDS011;9750;48.730;10.294;2023-09-12T07:40:42;15.23;;;9.65;;
19231;SDS011;9750;48.730;10.294;2023-09-12T07:47:01;16.10;;;9.13;;
19231;SDS011;9750;48.730;10.294;2023-09-12T07:49:31;15.55;;;9.73;;
19231;SDS011;9750;48.730;10.294;2023-09-12T07:52:02;12.15;;;10.05;;
19231;SDS011;9750;48.730;10.294;2023-09-12T07:54:30;11.85;;;10.20;;
19231;SDS011;9750;48.730;10.294;2023-09-12T07:56:58;13.13;;;9.98;;
19231;SDS011;9750;48.730;10.294;2023-09-12T07:59:26;11.73;;;9.02;;
19231;SDS011;9750;48.730;10.294;2023-09-12T08:01:53;14.55;;;10.10;;
19231;SDS011;9750;48.730;10.294;2023-09-12T08:04:20;16.45;;;10.60;;
19231;SDS011;9750;48.730;10.294;2023-09-12T08:06:47;13.63;;;9.75;;
19231;SDS011;9750;48.730;10.294;2023-09-12T08:09:15;11.05;;;9.95;;
19231;SDS011;9750;48.730;10.294;2023-09-12T08:11:43;13.77;;;9.82;;
19231;SDS011;9750;48.730;10.294;2023-09-12T08:14:21;13.88;;;9.32;;
19231;SDS011;9750;48.730;10.294;2023-09-12T08:17:20;12.43;;;10.27;;
19231;SDS011;9750;48.730;10.294;2023-09-12T08:20:10;12.10;;;10.10;;
19231;SDS011;9750;48.730;10.294;2023-09-12T08:26:31;13.75;;;11.32;;
19231;SDS011;9750;48.730;10.294;2023-09-12T08:29:00;12.75;;;10.13;;
19231;SDS011;9750;48.730;10.294;2023-09-12T08:31:29;16.10;;;10.73;;
19231;SDS011;9750;48.730;10.294;2023-09-12T08:33:58;13.35;;;9.85;;
19231;SDS011;9750;48.730;10.294;2023-09-12T08:36:25;13.15;;;9.32;;
19231;SDS011;9750;48.730;10.294;2023-09-12T08:38:54;11.75;;;9.05;;
19231;SDS011;9750;48.730;10.294;2023-09-12T08:41:21;11.85;;;9.35;;
19231;SDS011;9750;48.730;10.294;2023-09-12T08:43:49;11.00;;;9.13;;
19231;SDS011;9750;48.730;10.294;2023-09-12T08:46:19;11.82;;;8.52;;
19231;SDS011;9750;48.730;10.294;2023-09-12T08:49:07;10.82;;;9.73;;
19231;SDS011;9750;48.730;10.294;2023-09-12T08:51:40;10.63;;;9.27;;
19231;SDS011;9750;48.730;10.294;2023-09-12T08:54:08;11.95;;;9.75;;
19231;SDS011;9750;48.730;10.294;2023-09-12T08:56:36;10.25;;;8.77;;
19231;SDS011;9750;48.730;10.294;2023-09-12T08:59:09;10.45;;;9.07;;
19231;SDS011;9750;48.730;10.294;2023-09-12T09:04:38;9.48;;;8.57;;
19231;SDS011;9750;48.730;10.294;2023-09-12T09:07:34;10.43;;;8.98;;
19231;SDS011;9750;48.730;10.294;2023-09-12T09:10:14;9.70;;;8.40;;
19231;SDS011;9750;48.730;10.294;2023-09-12T09:13:00;9.38;;;8.50;;
19231;SDS011;9750;48.730;10.294;2023-09-12T09:15:37;9.27;;;8.38;;
19231;SDS011;9750;48.730;10.294;2023-09-12T09:18:17;10.60;;;9.30;;
19231;SDS011;9750;48.730;10.294;2023-09-12T09:24:30;11.60;;;8.38;;
19231;SDS011;9750;48.730;10.294;2023-09-12T09:30:38;10.35;;;8.65;;
19231;SDS011;9750;48.730;10.294;2023-09-12T09:43:40;9.10;;;7.45;;
19231;SDS011;9750;48.730;10.294;2023-09-12T09:49:14;8.70;;;7.75;;
19231;SDS011;9750;48.730;10.294;2023-09-12T09:51:44;8.32;;;7.50;;
19231;SDS011;9750;48.730;10.294;2023-09-12T09:54:12;9.52;;;8.30;;
19231;SDS011;9750;48.730;10.294;2023-09-12T09:56:48;12.43;;;8.48;;
19231;SDS011;9750;48.730;10.294;2023-09-12T09:59:20;8.80;;;7.75;;
19231;SDS011;9750;48.730;10.294;2023-09-12T10:04:41;8.98;;;8.07;;
19231;SDS011;9750;48.730;10.294;2023-09-12T10:07:14;10.38;;;7.93;;
19231;SDS011;9750;48.730;10.294;2023-09-12T10:09:48;9.23;;;7.53;;
19231;SDS011;9750;48.730;10.294;2023-09-12T10:12:20;8.45;;;7.47;;
19231;SDS011;9750;48.730;10.294;2023-09-12T10:15:00;8.50;;;7.63;;
19231;SDS011;9750;48.730;10.294;2023-09-12T10:17:42;8.82;;;7.78;;
19231;SDS011;9750;48.730;10.294;2023-09-12T10:20:14;9.15;;;8.02;;
19231;SDS011;9750;48.730;10.294;2023-09-12T10:22:47;8.73;;;7.88;;
19231;SDS011;9750;48.730;10.294;2023-09-12T10:25:26;9.52;;;8.00;;
19231;SDS011;9750;48.730;10.294;2023-09-12T10:28:11;9.52;;;8.40;;
19231;SDS011;9750;48.730;10.294;2023-09-12T10:30:39;8.65;;;7.75;;
19231;SDS011;9750;48.730;10.294;2023-09-12T10:33:08;10.23;;;8.45;;
19231;SDS011;9750;48.730;10.294;2023-09-12T10:35:39;8.88;;;8.05;;
19231;SDS011;9750;48.730;10.294;2023-09-12T10:38:16;8.95;;;7.70;;
19231;SDS011;9750;48.730;10.294;2023-09-12T10:40:50;9.75;;;7.90;;
19231;SDS011;9750;48.730;10.294;2023-09-12T10:43:44;10.75;;;8.20;;
19231;SDS011;9750;48.730;10.294;2023-09-12T10:46:42;7.97;;;7.18;;
19231;SDS011;9750;48.730;10.294;2023-09-12T10:49:18;8.73;;;7.90;;
19231;SDS011;9750;48.730;10.294;2023-09-12T10:51:46;9.60;;;7.45;;
19231;SDS011;9750;48.730;10.294;2023-09-12T10:54:23;9.13;;;7.82;;
19231;SDS011;9750;48.730;10.294;2023-09-12T10:57:03;8.68;;;7.43;;
19231;SDS011;9750;48.730;10.294;2023-09-12T11:06:00;9.68;;;8.32;;
19231;SDS011;9750;48.730;10.294;2023-09-12T11:08:29;9.57;;;8.27;;
19231;SDS011;9750;48.730;10.294;2023-09-12T11:11:18;8.68;;;7.80;;
19231;SDS011;9750;48.730;10.294;2023-09-12T11:14:02;9.07;;;8.20;;
19231;SDS011;9750;48.730;10.294;2023-09-12T11:16:42;9.38;;;8.30;;
19231;SDS011;9750;48.730;10.294;2023-09-12T11:19:30;11.73;;;8.07;;
19231;SDS011;9750;48.730;10.294;2023-09-12T11:25:45;9.13;;;8.18;;
19231;SDS011;9750;48.730;10.294;2023-09-12T11:28:31;10.45;;;9.40;;
19231;SDS011;9750;48.730;10.294;2023-09-12T11:31:04;9.45;;;8.55;;
19231;SDS011;9750;48.730;10.294;2023-09-12T11:36:47;9.13;;;8.15;;
19231;SDS011;9750;48.730;10.294;2023-09-12T11:39:24;9.77;;;8.95;;
19231;SDS011;9750;48.730;10.294;2023-09-12T11:41:52;9.60;;;8.68;;
19231;SDS011;9750;48.730;10.294;2023-09-12T11:44:27;9.25;;;8.30;;
19231;SDS011;9750;48.730;10.294;2023-09-12T11:47:17;10.30;;;8.27;;
19231;SDS011;9750;48.730;10.294;2023-09-12T11:49:51;9.60;;;8.63;;
19231;SDS011;9750;48.730;10.294;2023-09-12T11:52:24;9.18;;;8.30;;
19231;SDS011;9750;48.730;10.294;2023-09-12T11:54:54;12.93;;;9.10;;
19231;SDS011;9750;48.730;10.294;2023-09-12T12:00:30;11.05;;;8.13;;
19231;SDS011;9750;48.730;10.294;2023-09-12T12:06:32;9.75;;;8.85;;
19231;SDS011;9750;48.730;10.294;2023-09-12T12:09:18;10.05;;;8.95;;
19231;SDS011;9750;48.730;10.294;2023-09-12T12:11:48;11.20;;;8.98;;
19231;SDS011;9750;48.730;10.294;2023-09-12T12:14:51;9.20;;;8.30;;
19231;SDS011;9750;48.730;10.294;2023-09-12T12:17:21;9.48;;;8.55;;
19231;SDS011;9750;48.730;10.294;2023-09-12T12:19:49;9.25;;;8.30;;
19231;SDS011;9750;48.730;10.294;2023-09-12T12:22:31;9.82;;;8.82;;
19231;SDS011;9750;48.730;10.294;2023-09-12T12:25:07;9.20;;;8.35;;
19231;SDS011;9750;48.730;10.294;2023-09-12T12:27:36;9.35;;;8.38;;
19231;SDS011;9750;48.730;10.294;2023-09-12T12:30:09;8.98;;;8.18;;
19231;SDS011;9750;48.730;10.294;2023-09-12T12:32:39;9.40;;;8.60;;
19231;SDS011;9750;48.730;10.294;2023-09-12T12:35:07;9.13;;;8.23;;
19231;SDS011;9750;48.730;10.294;2023-09-12T12:37:35;10.38;;;8.30;;
19231;SDS011;9750;48.730;10.294;2023-09-12T12:40:04;9.80;;;8.82;;
19231;SDS011;9750;48.730;10.294;2023-09-12T12:42:37;9.68;;;8.77;;
19231;SDS011;9750;48.730;10.294;2023-09-12T12:45:10;8.85;;;8.00;;
19231;SDS011;9750;48.730;10.294;2023-09-12T12:47:43;11.20;;;8.55;;
19231;SDS011;9750;48.730;10.294;2023-09-12T12:50:15;9.35;;;8.40;;
19231;SDS011;9750;48.730;10.294;2023-09-12T12:52:46;9.10;;;8.15;;
19231;SDS011;9750;48.730;10.294;2023-09-12T12:55:15;9.30;;;8.40;;
19231;SDS011;9750;48.730;10.294;2023-09-12T12:57:48;9.73;;;8.75;;
19231;SDS011;9750;48.730;10.294;2023-09-12T13:00:17;9.90;;;9.00;;
19231;SDS011;9750;48.730;10.294;2023-09-12T13:02:46;8.88;;;7.70;;
19231;SDS011;9750;48.730;10.294;2023-09-12T13:05:20;9.43;;;8.63;;
19231;SDS011;9750;48.730;10.294;2023-09-12T13:14:28;8.40;;;7.60;;
19231;SDS011;9750;48.730;10.294;2023-09-12T13:16:57;9.10;;;8.20;;
19231;SDS011;9750;48.730;10.294;2023-09-12T13:19:28;9.02;;;8.13;;
19231;SDS011;9750;48.730;10.294;2023-09-12T13:21:55;9.13;;;8.10;;
19231;SDS011;9750;48.730;10.294;2023-09-12T13:24:31;8.30;;;7.40;;
19231;SDS011;9750;48.730;10.294;2023-09-12T13:27:04;9.57;;;8.60;;
19231;SDS011;9750;48.730;10.294;2023-09-12T13:29:33;9.20;;;8.25;;
19231;SDS011;9750;48.730;10.294;2023-09-12T13:35:08;9.63;;;8.68;;
19231;SDS011;9750;48.730;10.294;2023-09-12T13:37:38;10.88;;;8.40;;
19231;SDS011;9750;48.730;10.294;2023-09-12T13:40:06;9.40;;;8.40;;
19231;SDS011;9750;48.730;10.294;2023-09-12T13:42:34;9.68;;;8.68;;
19231;SDS011;9750;48.730;10.294;2023-09-12T13:45:07;9.02;;;8.23;;
19231;SDS011;9750;48.730;10.294;2023-09-12T13:47:36;9.02;;;8.32;;
19231;SDS011;9750;48.730;10.294;2023-09-12T13:50:03;9.80;;;8.82;;
19231;SDS011;9750;48.730;10.294;2023-09-12T13:52:31;8.88;;;7.97;;
19231;SDS011;9750;48.730;10.294;2023-09-12T13:54:59;8.52;;;7.82;;
19231;SDS011;9750;48.730;10.294;2023-09-12T13:57:28;9.93;;;8.63;;
19231;SDS011;9750;48.730;10.294;2023-09-12T13:59:58;8.38;;;7.65;;
19231;SDS011;9750;48.730;10.294;2023-09-12T14:02:38;9.15;;;8.25;;
19231;SDS011;9750;48.730;10.294;2023-09-12T14:05:09;8.82;;;8.05;;
19231;SDS011;9750;48.730;10.294;2023-09-12T14:07:39;9.40;;;7.85;;
19231;SDS011;9750;48.730;10.294;2023-09-12T14:10:07;9.00;;;8.25;;
19231;SDS011;9750;48.730;10.294;2023-09-12T14:12:35;9.32;;;8.45;;
19231;SDS011;9750;48.730;10.294;2023-09-12T14:15:02;8.05;;;7.30;;
19231;SDS011;9750;48.730;10.294;2023-09-12T14:17:31;9.25;;;8.27;;
19231;SDS011;9750;48.730;10.294;2023-09-12T14:20:02;9.68;;;8.27;;
19231;SDS011;9750;48.730;10.294;2023-09-12T14:22:30;9.27;;;8.35;;
19231;SDS011;9750;48.730;10.294;2023-09-12T14:24:57;9.10;;;8.30;;
19231;SDS011;9750;48.730;10.294;2023-09-12T14:27:25;8.40;;;7.55;;
19231;SDS011;9750;48.730;10.294;2023-09-12T14:29:56;8.65;;;7.75;;
19231;SDS011;9750;48.730;10.294;2023-09-12T14:32:24;9.15;;;8.05;;
19231;SDS011;9750;48.730;10.294;2023-09-12T14:35:00;8.82;;;8.05;;
19231;SDS011;9750;48.730;10.294;2023-09-12T14:38:00;8.52;;;7.72;;
19231;SDS011;9750;48.730;10.294;2023-09-12T14:40:33;9.20;;;8.35;;
19231;SDS011;9750;48.730;10.294;2023-09-12T14:43:12;8.75;;;7.93;;
19231;SDS011;9750;48.730;10.294;2023-09-12T14:46:14;9.32;;;8.35;;
19231;SDS011;9750;48.730;10.294;2023-09-12T14:49:11;11.00;;;7.85;;
19231;SDS011;9750;48.730;10.294;2023-09-12T14:52:17;9.32;;;8.40;;
19231;SDS011;9750;48.730;10.294;2023-09-12T15:05:37;10.07;;;8.25;;
19231;SDS011;9750;48.730;10.294;2023-09-12T15:19:13;10.15;;;8.15;;
19231;SDS011;9750;48.730;10.294;2023-09-12T15:21:54;8.45;;;7.60;;
19231;SDS011;9750;48.730;10.294;2023-09-12T15:24:33;9.10;;;8.13;;
19231;SDS011;9750;48.730;10.294;2023-09-12T15:27:07;8.15;;;7.45;;
19231;SDS011;9750;48.730;10.294;2023-09-12T15:29:38;8.63;;;7.60;;
19231;SDS011;9750;48.730;10.294;2023-09-12T15:32:24;9.32;;;8.38;;
19231;SDS011;9750;48.730;10.294;2023-09-12T15:34:56;9.10;;;8.27;;
19231;SDS011;9750;48.730;10.294;2023-09-12T15:37:34;8.73;;;7.85;;
19231;SDS011;9750;48.730;10.294;2023-09-12T15:40:08;9.65;;;7.95;;
19231;SDS011;9750;48.730;10.294;2023-09-12T15:42:41;8.38;;;7.68;;
19231;SDS011;9750;48.730;10.294;2023-09-12T15:45:16;8.40;;;7.60;;
19231;SDS011;9750;48.730;10.294;2023-09-12T15:50:40;8.85;;;8.00;;
19231;SDS011;9750;48.730;10.294;2023-09-12T15:53:16;8.88;;;7.97;;
19231;SDS011;9750;48.730;10.294;2023-09-12T15:55:55;8.98;;;8.15;;
19231;SDS011;9750;48.730;10.294;2023-09-12T15:58:25;10.73;;;8.45;;
19231;SDS011;9750;48.730;10.294;2023-09-12T16:01:04;10.88;;;8.10;;
19231;SDS011;9750;48.730;10.294;2023-09-12T16:03:42;9.43;;;8.52;;
19231;SDS011;9750;48.730;10.294;2023-09-12T16:06:19;8.95;;;8.15;;
19231;SDS011;9750;48.730;10.294;2023-09-12T16:09:02;10.77;;;9.02;;
19231;SDS011;9750;48.730;10.294;2023-09-12T16:11:38;10.65;;;8.85;;
19231;SDS011;9750;48.730;10.294;2023-09-12T16:14:19;11.30;;;8.90;;
19231;SDS011;9750;48.730;10.294;2023-09-12T16:17:09;10.70;;;8.57;;
19231;SDS011;9750;48.730;10.294;2023-09-12T16:19:56;13.23;;;9.43;;
19231;SDS011;9750;48.730;10.294;2023-09-12T16:22:47;11.43;;;8.35;;
19231;SDS011;9750;48.730;10.294;2023-09-12T16:25:39;9.93;;;8.45;;
19231;SDS011;9750;48.730;10.294;2023-09-12T16:28:40;10.98;;;8.18;;
19231;SDS011;9750;48.730;10.294;2023-09-12T16:31:29;8.65;;;7.20;;
19231;SDS011;9750;48.730;10.294;2023-09-12T16:34:17;7.80;;;7.18;;
19231;SDS011;9750;48.730;10.294;2023-09-12T16:37:01;9.45;;;7.78;;
19231;SDS011;9750;48.730;10.294;2023-09-12T16:39:45;8.27;;;7.47;;
19231;SDS011;9750;48.730;10.294;2023-09-12T16:42:26;8.32;;;7.63;;
19231;SDS011;9750;48.730;10.294;2023-09-12T16:45:29;7.90;;;7.10;;
19231;SDS011;9750;48.730;10.294;2023-09-12T17:04:46;9.88;;;8.70;;
19231;SDS011;9750;48.730;10.294;2023-09-12T17:07:35;9.00;;;7.53;;
19231;SDS011;9750;48.730;10.294;2023-09-12T17:10:18;9.00;;;8.15;;
19231;SDS011;9750;48.730;10.294;2023-09-12T17:16:10;9.05;;;7.35;;
19231;SDS011;9750;48.730;10.294;2023-09-12T17:40:59;8.23;;;7.43;;
19231;SDS011;9750;48.730;10.294;2023-09-12T17:47:44;9.30;;;7.78;;
19231;SDS011;9750;48.730;10.294;2023-09-12T17:50:38;10.35;;;8.05;;
19231;SDS011;9750;48.730;10.294;2023-09-12T17:56:59;9.90;;;7.53;;
19231;SDS011;9750;48.730;10.294;2023-09-12T18:02:34;12.60;;;8.43;;
19231;SDS011;9750;48.730;10.294;2023-09-12T18:11:31;10.85;;;8.07;;
19231;SDS011;9750;48.730;10.294;2023-09-12T18:14:03;13.93;;;8.30;;
19231;SDS011;9750;48.730;10.294;2023-09-12T18:16:30;8.77;;;7.78;;
19231;SDS011;9750;48.730;10.294;2023-09-12T18:19:05;8.80;;;7.60;;
19231;SDS011;9750;48.730;10.294;2023-09-12T18:21:44;8.75;;;7.72;;
19231;SDS011;9750;48.730;10.294;2023-09-12T18:24:12;8.25;;;7.28;;
19231;SDS011;9750;48.730;10.294;2023-09-12T18:26:51;8.65;;;7.75;;
19231;SDS011;9750;48.730;10.294;2023-09-12T18:29:24;10.80;;;7.35;;